createdAt,value
2018-09-17T00:02:02.331Z,100249.28
2018-09-17T00:04:29.888Z,100256.44
2018-09-17T00:06:57.461Z,100260.48
2018-09-17T00:09:25.034Z,100263.44
2018-09-17T00:11:53.420Z,100252.98
2018-09-17T00:14:22.722Z,100256.72
2018-09-17T00:16:50.879Z,100252.23
2018-09-17T00:19:18.925Z,100248.23
2018-09-17T00:21:46.510Z,100248.23
2018-09-17T00:24:15.160Z,100256.01
2018-09-17T00:26:42.850Z,100270.00
2018-09-17T00:29:13.144Z,100282.03
2018-09-17T00:31:41.809Z,100270.09
2018-09-17T00:34:10.152Z,100275.23
2018-09-17T00:36:38.268Z,100278.29
2018-09-17T00:39:06.831Z,100267.13
2018-09-17T00:41:34.392Z,100269.55
2018-09-17T00:44:02.342Z,100273.59
2018-09-17T00:46:31.571Z,100272.64
2018-09-17T00:48:59.228Z,100266.35
2018-09-17T00:51:26.858Z,100269.25
2018-09-17T00:53:54.719Z,100267.33
2018-09-17T00:56:25.251Z,100269.78
2018-09-17T00:58:54.229Z,100279.17
2018-09-17T01:01:22.858Z,100282.09
2018-09-17T01:03:51.114Z,100276.89
2018-09-17T01:06:20.396Z,100277.88
2018-09-17T01:08:48.573Z,100280.31
2018-09-17T01:11:16.146Z,100282.38
2018-09-17T01:13:43.895Z,100282.64
2018-09-17T01:16:11.494Z,100282.86
2018-09-17T01:18:39.400Z,100275.72
2018-09-17T01:21:07.945Z,100283.72
2018-09-17T01:26:16.455Z,100288.56
2018-09-17T01:28:44.233Z,100286.38
2018-09-17T01:31:12.749Z,100279.33
2018-09-17T01:33:40.637Z,100279.94
2018-09-17T01:36:10.644Z,100289.02
2018-09-17T01:38:38.199Z,100293.79
2018-09-17T01:41:05.818Z,100289.54
2018-09-17T01:43:33.420Z,100290.27
2018-09-17T01:46:02.187Z,100287.11
2018-09-17T01:48:29.785Z,100294.52
2018-09-17T01:50:57.361Z,100299.86
2018-09-17T01:53:25.398Z,100300.47
2018-09-17T01:55:54.055Z,100302.03
2018-09-17T01:58:21.801Z,100287.85
2018-09-17T02:00:51.376Z,100280.94
2018-09-17T02:03:22.061Z,100276.21
2018-09-17T02:05:49.754Z,100271.85
2018-09-17T02:08:17.313Z,100266.38
2018-09-17T02:10:45.917Z,100267.97
2018-09-17T02:13:15.941Z,100264.45
2018-09-17T02:15:43.762Z,100270.87
2018-09-17T02:18:11.359Z,100268.82
2018-09-17T02:20:39.643Z,100259.23
2018-09-17T02:23:07.246Z,100258.52
2018-09-17T02:25:34.827Z,100256.43
2018-09-17T02:28:02.908Z,100260.44
2018-09-17T02:30:30.538Z,100253.86
2018-09-17T02:32:58.495Z,100254.83
2018-09-17T02:35:28.016Z,100251.20
2018-09-17T02:37:56.279Z,100255.91
2018-09-17T02:40:24.206Z,100248.53
2018-09-17T02:42:52.232Z,100245.50
2018-09-17T02:45:21.701Z,100242.48
2018-09-17T02:47:49.304Z,100253.50
2018-09-17T02:50:16.912Z,100265.97
2018-09-17T02:52:44.579Z,100259.41
2018-09-17T02:55:12.984Z,100263.56
2018-09-17T02:57:41.188Z,100258.22
2018-09-17T03:00:09.832Z,100253.00
2018-09-17T03:02:37.800Z,100264.75
2018-09-17T03:05:05.404Z,100267.91
2018-09-17T03:07:33.713Z,100261.72
2018-09-17T03:10:01.357Z,100264.39
2018-09-17T03:12:29.311Z,100260.50
2018-09-17T03:14:56.900Z,100258.95
2018-09-17T03:17:24.517Z,100259.52
2018-09-17T03:19:52.103Z,100265.58
2018-09-17T03:22:20.379Z,100270.66
2018-09-17T03:24:48.030Z,100273.56
2018-09-17T03:27:15.615Z,100276.84
2018-09-17T03:29:44.922Z,100278.79
2018-09-17T03:32:12.596Z,100279.37
2018-09-17T03:34:40.270Z,100282.17
2018-09-17T03:37:08.192Z,100287.25
2018-09-17T03:39:35.798Z,100281.92
2018-09-17T03:42:04.047Z,100277.55
2018-09-17T03:44:32.338Z,100276.23
2018-09-17T03:46:59.938Z,100282.89
2018-09-17T03:49:27.549Z,100283.83
2018-09-17T03:51:55.583Z,100278.13
2018-09-17T03:54:23.206Z,100279.10
2018-09-17T03:56:50.799Z,100286.38
2018-09-17T03:59:18.894Z,100286.12
2018-09-17T04:01:46.460Z,100279.34
2018-09-17T04:04:14.102Z,100283.91
2018-09-17T04:06:41.686Z,100285.13
2018-09-17T04:09:12.386Z,100286.67
2018-09-17T04:11:40.834Z,100289.47
2018-09-17T04:14:08.409Z,100290.45
2018-09-17T04:16:36.851Z,100281.33
2018-09-17T04:19:04.409Z,100286.40
2018-09-17T04:21:32.042Z,100277.31
2018-09-17T04:24:00.873Z,100280.95
2018-09-17T04:26:28.447Z,100283.25
2018-09-17T04:28:56.006Z,100281.66
2018-09-17T04:31:23.998Z,100284.94
2018-09-17T04:33:51.591Z,100287.91
2018-09-17T04:36:19.134Z,100293.48
2018-09-17T04:38:47.059Z,100291.52
2018-09-17T04:41:14.605Z,100289.83
2018-09-17T04:43:42.148Z,100286.80
2018-09-17T04:46:10.163Z,100289.72
2018-09-17T04:48:37.773Z,100292.39
2018-09-17T04:51:05.323Z,100292.14
2018-09-17T04:53:33.248Z,100292.04
2018-09-17T04:56:00.784Z,100286.58
2018-09-17T04:58:28.411Z,100291.44
2018-09-17T05:00:58.041Z,100286.11
2018-09-17T05:03:25.664Z,100288.05
2018-09-17T05:05:53.199Z,100284.76
2018-09-17T05:08:21.167Z,100278.55
2018-09-17T05:10:51.559Z,100280.23
2018-09-17T05:13:19.196Z,100283.70
2018-09-17T05:15:47.295Z,100280.91
2018-09-17T05:18:14.879Z,100283.20
2018-09-17T05:20:42.494Z,100280.15
2018-09-17T05:23:10.539Z,100283.20
2018-09-17T05:25:38.130Z,100289.62
2018-09-17T05:28:05.686Z,100298.14
2018-09-17T05:30:33.622Z,100298.77
2018-09-17T05:33:01.240Z,100304.11
2018-09-17T05:35:28.907Z,100305.96
2018-09-17T05:37:56.904Z,100302.81
2018-09-17T05:40:24.507Z,100301.64
2018-09-17T05:42:52.068Z,100302.52
2018-09-17T05:45:20.387Z,100305.56
2018-09-17T05:47:47.976Z,100318.80
2018-09-17T05:50:15.556Z,100324.39
2018-09-17T05:52:43.582Z,100319.48
2018-09-17T05:55:12.020Z,100322.89
2018-09-17T05:57:39.641Z,100332.12
2018-09-17T06:00:09.307Z,100325.96
2018-09-17T06:02:36.863Z,100323.19
2018-09-17T06:05:04.489Z,100321.14
2018-09-17T06:07:32.439Z,100319.81
2018-09-17T06:10:00.047Z,100327.45
2018-09-17T06:12:27.598Z,100334.52
2018-09-17T06:14:55.481Z,100331.38
2018-09-17T06:17:23.091Z,100332.13
2018-09-17T06:19:50.667Z,100328.37
2018-09-17T06:22:19.571Z,100328.27
2018-09-17T06:24:47.122Z,100330.42
2018-09-17T06:27:15.421Z,100330.30
2018-09-17T06:29:43.400Z,100322.06
2018-09-17T06:32:10.999Z,100325.83
2018-09-17T06:34:38.568Z,100326.53
2018-09-17T06:37:06.528Z,100326.29
2018-09-17T06:39:34.102Z,100323.84
2018-09-17T06:42:02.246Z,100326.84
2018-09-17T06:44:30.149Z,100329.34
2018-09-17T06:46:57.809Z,100338.42
2018-09-17T06:49:25.555Z,100338.40
2018-09-17T06:51:53.568Z,100341.05
2018-09-17T06:54:21.126Z,100356.32
2018-09-17T06:56:48.687Z,100356.38
2018-09-17T06:59:16.687Z,100360.83
2018-09-17T07:01:44.271Z,100363.93
2018-09-17T07:04:11.815Z,100358.30
2018-09-17T07:06:40.569Z,100351.92
2018-09-17T07:09:08.811Z,100354.55
2018-09-17T07:11:37.271Z,100356.42
2018-09-17T07:14:05.201Z,100356.48
2018-09-17T07:16:32.835Z,100354.81
2018-09-17T07:19:00.470Z,100357.20
2018-09-17T07:21:28.425Z,100348.00
2018-09-17T07:23:57.628Z,100347.56
2018-09-17T07:26:27.907Z,100351.34
2018-09-17T07:28:56.431Z,100345.95
2018-09-17T07:31:24.946Z,100340.72
2018-09-17T07:33:52.594Z,100333.75
2018-09-17T07:36:21.016Z,100336.63
2018-09-17T07:38:48.851Z,100331.03
2018-09-17T07:41:16.461Z,100330.87
2018-09-17T07:43:44.556Z,100328.75
2018-09-17T07:46:12.147Z,100328.19
2018-09-17T07:51:20.135Z,100322.00
2018-09-17T07:53:47.701Z,100316.00
2018-09-17T07:56:15.261Z,100306.81
2018-09-17T07:58:43.195Z,100313.73
2018-09-17T08:01:11.007Z,100309.31
2018-09-17T08:03:38.615Z,100311.87
2018-09-17T08:06:08.619Z,100310.89
2018-09-17T08:08:36.300Z,100311.45
2018-09-17T08:11:03.946Z,100309.62
2018-09-17T08:13:31.977Z,100310.58
2018-09-17T08:15:59.619Z,100308.56
2018-09-17T08:18:28.991Z,100313.05
2018-09-17T08:20:58.659Z,100304.06
2018-09-17T08:23:27.499Z,100303.67
2018-09-17T08:25:55.513Z,100309.66
2018-09-17T08:28:24.130Z,100309.09
2018-09-17T08:30:51.781Z,100308.34
2018-09-17T08:33:19.604Z,100303.14
2018-09-17T08:35:52.136Z,100298.65
2018-09-17T08:38:20.172Z,100297.02
2018-09-17T08:40:48.356Z,100294.30
2018-09-17T08:43:16.400Z,100291.91
2018-09-17T08:45:44.076Z,100283.91
2018-09-17T08:48:11.683Z,100285.38
2018-09-17T08:50:42.294Z,100280.02
2018-09-17T08:53:10.963Z,100280.41
2018-09-17T08:55:47.196Z,100277.41
2018-09-17T08:58:20.391Z,100266.61
2018-09-17T09:00:53.191Z,100264.95
2018-09-17T09:03:27.334Z,100264.80
2018-09-17T09:08:01.393Z,100264.64
2018-09-17T09:10:36.392Z,100265.73
2018-09-17T09:13:16.266Z,100264.52
2018-09-17T09:15:45.756Z,100266.14
2018-09-17T09:18:14.906Z,100269.67
2018-09-17T09:20:44.411Z,100258.73
2018-09-17T09:23:14.483Z,100256.74
2018-09-17T09:25:43.678Z,100253.09
2018-09-17T09:28:11.642Z,100248.05
2018-09-17T09:30:39.338Z,100250.77
2018-09-17T09:33:06.972Z,100252.98
2018-09-17T09:35:34.808Z,100257.55
2018-09-17T09:38:03.009Z,100249.38
2018-09-17T09:40:31.245Z,100235.49
2018-09-17T09:42:59.946Z,100239.33
2018-09-17T09:45:27.519Z,100243.03
2018-09-17T09:47:59.556Z,100233.70
2018-09-17T09:50:29.280Z,100239.80
2018-09-17T09:52:58.304Z,100235.55
2018-09-17T09:55:26.611Z,100229.85
2018-09-17T09:57:56.788Z,100221.75
2018-09-17T10:00:30.640Z,100219.09
2018-09-17T10:03:06.194Z,100214.31
2018-09-17T10:05:33.841Z,100214.34
2018-09-17T10:08:02.555Z,100208.66
2018-09-17T10:10:35.482Z,100210.43
2018-09-17T10:13:08.104Z,100209.92
2018-09-17T10:15:41.526Z,100207.34
2018-09-17T10:18:14.394Z,100206.70
2018-09-17T10:20:42.666Z,100206.50
2018-09-17T10:23:10.540Z,100199.44
2018-09-17T10:25:38.209Z,100199.09
2018-09-17T10:28:06.795Z,100193.82
2018-09-17T10:30:34.801Z,100196.86
2018-09-17T10:33:03.167Z,100191.30
2018-09-17T10:35:31.631Z,100194.22
2018-09-17T10:38:00.546Z,100196.19
2018-09-17T10:40:30.138Z,100192.90
2018-09-17T10:42:57.783Z,100193.70
2018-09-17T10:45:26.245Z,100188.38
2018-09-17T10:47:53.794Z,100197.28
2018-09-17T10:50:22.438Z,100193.62
2018-09-17T10:52:50.679Z,100181.88
2018-09-17T10:55:19.245Z,100186.16
2018-09-17T10:57:46.884Z,100181.94
2018-09-17T11:00:15.711Z,100179.37
2018-09-17T11:02:44.211Z,100186.20
2018-09-17T11:05:14.190Z,100175.19
2018-09-17T11:07:43.635Z,100176.80
2018-09-17T11:10:12.455Z,100165.89
2018-09-17T11:12:41.971Z,100164.88
2018-09-17T11:15:10.039Z,100172.00
2018-09-17T11:17:37.653Z,100168.83
2018-09-17T11:20:07.476Z,100163.70
2018-09-17T11:22:37.559Z,100157.96
2018-09-17T11:25:06.106Z,100152.36
2018-09-17T11:27:33.678Z,100160.66
2018-09-17T11:30:02.478Z,100155.80
2018-09-17T11:32:31.525Z,100152.55
2018-09-17T11:35:02.669Z,100151.82
2018-09-17T11:37:31.080Z,100153.04
2018-09-17T11:39:58.659Z,100138.42
2018-09-17T11:42:27.176Z,100144.17
2018-09-17T11:44:55.037Z,100149.49
2018-09-17T11:47:22.745Z,100147.94
2018-09-17T11:49:50.626Z,100144.70
2018-09-17T11:52:18.674Z,100145.03
2018-09-17T11:54:48.930Z,100137.56
2018-09-17T11:57:17.140Z,100147.25
2018-09-17T11:59:46.514Z,100140.05
2018-09-17T12:02:19.159Z,100138.68
2018-09-17T12:04:52.742Z,100129.27
2018-09-17T12:07:26.427Z,100127.59
2018-09-17T12:09:55.566Z,100120.07
2018-09-17T12:12:25.156Z,100121.32
2018-09-17T12:14:53.318Z,100121.33
2018-09-17T12:17:20.873Z,100125.18
2018-09-17T12:19:48.558Z,100117.62
2018-09-17T12:22:16.630Z,100109.25
2018-09-17T12:24:45.286Z,100112.48
2018-09-17T12:27:13.742Z,100106.76
2018-09-17T12:29:42.711Z,100107.38
2018-09-17T12:32:10.578Z,100106.64
2018-09-17T12:34:38.178Z,100096.98
2018-09-17T12:37:06.303Z,100101.14
2018-09-17T12:39:33.915Z,100104.67
2018-09-17T12:42:03.117Z,100104.38
2018-09-17T12:44:35.724Z,100100.23
2018-09-17T12:47:03.360Z,100098.91
2018-09-17T12:49:30.960Z,100087.66
2018-09-17T12:52:05.431Z,100097.40
2018-09-17T12:54:33.989Z,100090.20
2018-09-17T12:57:01.609Z,100092.32
2018-09-17T12:59:30.285Z,100091.82
2018-09-17T13:01:57.898Z,100080.87
2018-09-17T13:04:25.708Z,100079.03
2018-09-17T13:06:55.472Z,100076.98
2018-09-17T13:09:23.860Z,100070.16
2018-09-17T13:11:52.552Z,100075.73
2018-09-17T13:14:20.450Z,100079.57
2018-09-17T13:16:48.042Z,100077.32
2018-09-17T13:19:16.266Z,100076.55
2018-09-17T13:21:46.950Z,100079.02
2018-09-17T13:24:15.184Z,100072.25
2018-09-17T13:26:43.618Z,100072.34
2018-09-17T13:29:12.600Z,100063.00
2018-09-17T13:31:41.553Z,100058.76
2018-09-17T13:34:09.146Z,100062.09
2018-09-17T13:36:38.360Z,100058.67
2018-09-17T13:39:05.966Z,100062.72
2018-09-17T13:41:33.871Z,100057.28
2018-09-17T13:44:01.951Z,100051.77
2018-09-17T13:46:29.561Z,100049.78
2018-09-17T13:48:57.098Z,100044.59
2018-09-17T13:51:25.868Z,100039.00
2018-09-17T13:53:54.740Z,100032.86
2018-09-17T13:56:22.332Z,100029.50
2018-09-17T13:58:51.511Z,100025.88
2018-09-17T14:01:19.294Z,100026.39
2018-09-17T14:03:48.266Z,100027.73
2018-09-17T14:06:16.682Z,100026.72
2018-09-17T14:08:44.292Z,100024.30
2018-09-17T14:11:12.305Z,100021.00
2018-09-17T14:13:39.872Z,100014.50
2018-09-17T14:16:08.639Z,100011.96
2018-09-17T14:18:37.140Z,100006.96
2018-09-17T14:21:04.736Z,100011.14
2018-09-17T14:23:37.016Z,100008.92
2018-09-17T14:26:05.403Z,100010.78
2018-09-17T14:28:33.846Z,100012.58
2018-09-17T14:31:01.393Z,100005.63
2018-09-17T14:33:34.430Z,100004.25
2018-09-17T14:38:48.260Z,99996.91
2018-09-17T14:41:19.902Z,99991.48
2018-09-17T14:43:49.992Z,99990.34
2018-09-17T14:49:28.094Z,99990.27
2018-09-17T14:51:58.217Z,99982.56
2018-09-17T14:54:25.897Z,99979.09
2018-09-17T14:56:54.693Z,99981.18
2018-09-17T14:59:25.828Z,99973.30
2018-09-17T15:01:56.205Z,99972.55
2018-09-17T15:04:24.503Z,99964.90
2018-09-17T15:06:52.483Z,99963.59
2018-09-17T15:09:20.009Z,99964.81
2018-09-17T15:11:48.058Z,99958.95
2018-09-17T15:14:15.702Z,99956.37
2018-09-17T15:16:45.305Z,99953.27
2018-09-17T15:19:13.283Z,99952.78
2018-09-17T15:21:42.092Z,99947.27
2018-09-17T15:24:10.369Z,99942.03
2018-09-17T15:26:38.296Z,99946.91
2018-09-17T15:29:07.514Z,99943.09
2018-09-17T15:31:35.083Z,99943.02
2018-09-17T15:34:03.866Z,99940.56
2018-09-17T15:36:31.396Z,99943.07
2018-09-17T15:38:59.803Z,99947.08
2018-09-17T15:41:27.785Z,99939.87
2018-09-17T15:43:55.231Z,99928.45
2018-09-17T15:46:25.636Z,99926.70
2018-09-17T15:48:53.639Z,99929.48
2018-09-17T15:51:22.271Z,99921.35
2018-09-17T15:53:49.808Z,99920.41
2018-09-17T15:56:20.013Z,99917.52
2018-09-17T15:58:47.554Z,99917.12
2018-09-17T16:01:15.341Z,99922.07
2018-09-17T16:03:44.878Z,99922.39
2018-09-17T16:06:12.456Z,99921.31
2018-09-17T16:08:41.425Z,99920.39
2018-09-17T16:11:09.350Z,99913.28
2018-09-17T16:13:37.681Z,99922.52
2018-09-17T16:16:06.302Z,99916.68
2018-09-17T16:18:33.897Z,99913.19
2018-09-17T16:21:01.537Z,99911.53
2018-09-17T16:23:29.464Z,99914.35
2018-09-17T16:25:57.023Z,99912.50
2018-09-17T16:28:24.557Z,99910.08
2018-09-17T16:30:52.569Z,99917.81
2018-09-17T16:33:20.412Z,99908.32
2018-09-17T16:35:48.790Z,99911.66
2018-09-17T16:38:16.754Z,99911.34
2018-09-17T16:40:44.898Z,99912.98
2018-09-17T16:43:12.459Z,99905.75
2018-09-17T16:45:40.395Z,99906.39
2018-09-17T16:48:08.662Z,99912.20
2018-09-17T16:50:36.289Z,99912.59
2018-09-17T16:53:04.365Z,99910.58
2018-09-17T16:55:32.628Z,99912.01
2018-09-17T16:58:00.271Z,99916.61
2018-09-17T17:00:28.971Z,99915.91
2018-09-17T17:02:56.537Z,99918.92
2018-09-17T17:05:24.776Z,99920.95
2018-09-17T17:07:52.730Z,99926.02
2018-09-17T17:10:21.258Z,99920.37
2018-09-17T17:12:48.845Z,99915.47
2018-09-17T17:15:28.255Z,99915.87
2018-09-17T17:17:56.537Z,99917.45
2018-09-17T17:20:24.977Z,99911.57
2018-09-17T17:22:52.494Z,99917.80
2018-09-17T17:25:20.074Z,99917.45
2018-09-17T17:27:47.983Z,99914.61
2018-09-17T17:30:15.555Z,99916.55
2018-09-17T17:32:43.158Z,99920.09
2018-09-17T17:35:11.406Z,99922.34
2018-09-17T17:37:39.914Z,99919.35
2018-09-17T17:40:07.456Z,99915.83
2018-09-17T17:42:36.051Z,99914.51
2018-09-17T17:45:03.650Z,99906.62
2018-09-17T17:47:32.614Z,99911.22
2018-09-17T17:50:00.728Z,99909.95
2018-09-17T17:52:28.260Z,99913.72
2018-09-17T17:57:30.514Z,99908.77
2018-09-17T17:59:58.233Z,99917.09
2018-09-17T18:02:25.796Z,99915.91
2018-09-17T18:04:54.837Z,99920.80
2018-09-17T18:07:23.510Z,99916.34
2018-09-17T18:09:51.107Z,99913.62
2018-09-17T18:12:19.025Z,99912.56
2018-09-17T18:14:46.641Z,99916.56
2018-09-17T18:17:14.309Z,99915.00
2018-09-17T18:19:42.048Z,99920.20
2018-09-17T18:22:09.640Z,99920.48
2018-09-17T18:24:37.786Z,99915.00
2018-09-17T18:27:05.638Z,99919.02
2018-09-17T18:29:33.204Z,99910.52
2018-09-17T18:32:01.110Z,99917.41
2018-09-17T18:34:28.658Z,99912.00
2018-09-17T18:36:59.240Z,99917.02
2018-09-17T18:39:28.159Z,99913.73
2018-09-17T18:41:57.514Z,99911.75
2018-09-17T18:44:28.706Z,99907.44
2018-09-17T18:46:59.390Z,99910.55
2018-09-17T18:49:26.965Z,99904.50
2018-09-17T18:51:58.807Z,99900.17
2018-09-17T18:54:29.086Z,99900.24
2018-09-17T18:59:39.954Z,99902.05
2018-09-17T19:02:07.631Z,99904.66
2018-09-17T19:04:37.324Z,99901.85
2018-09-17T19:07:05.941Z,99906.28
2018-09-17T19:09:38.693Z,99901.91
2018-09-17T19:12:08.017Z,99902.82
2018-09-17T19:14:41.112Z,99909.08
2018-09-17T19:17:14.575Z,99906.09
2018-09-17T19:19:44.609Z,99911.53
2018-09-17T19:22:18.783Z,99904.65
2018-09-17T19:24:46.421Z,99906.16
2018-09-17T19:27:16.366Z,99905.87
2018-09-17T19:29:44.702Z,99901.84
2018-09-17T19:32:12.574Z,99901.52
2018-09-17T19:34:41.321Z,99902.55
2018-09-17T19:37:17.590Z,99896.33
2018-09-17T19:39:50.471Z,99898.52
2018-09-17T19:42:19.607Z,99897.67
2018-09-17T19:44:52.547Z,99894.50
2018-09-17T19:47:23.788Z,99898.39
2018-09-17T19:49:52.577Z,99895.02
2018-09-17T19:52:24.830Z,99893.17
2018-09-17T19:54:54.124Z,99892.34
2018-09-17T19:57:26.724Z,99892.84
2018-09-17T19:59:57.227Z,99892.84
2018-09-17T20:02:26.517Z,99892.84
2018-09-17T20:04:59.218Z,99891.66
2018-09-17T20:07:27.343Z,99890.80
2018-09-17T20:09:56.688Z,99889.98
2018-09-17T20:12:24.358Z,99886.63
2018-09-17T20:14:52.459Z,99885.94
2018-09-17T20:17:21.731Z,99884.92
2018-09-17T20:19:50.367Z,99883.41
2018-09-17T20:22:18.431Z,99888.61
2018-09-17T20:24:47.368Z,99888.72
2018-09-17T20:27:17.124Z,99891.42
2018-09-17T20:29:44.991Z,99887.70
2018-09-17T20:32:12.589Z,99885.33
2018-09-17T20:34:40.269Z,99878.61
2018-09-17T20:37:08.222Z,99879.92
2018-09-17T20:39:35.851Z,99881.62
2018-09-17T20:42:05.316Z,99872.17
2018-09-17T20:44:33.255Z,99871.66
2018-09-17T20:47:00.816Z,99872.00
2018-09-17T20:49:28.492Z,99873.84
2018-09-17T20:51:56.472Z,99871.31
2018-09-17T20:54:24.061Z,99870.95
2018-09-17T20:56:52.118Z,99869.75
2018-09-17T20:59:20.019Z,99872.60
2018-09-17T21:01:48.942Z,99875.75
2018-09-17T21:04:17.568Z,99871.72
2018-09-17T21:06:45.571Z,99876.76
2018-09-17T21:09:14.542Z,99870.70
2018-09-17T21:11:43.348Z,99876.72
2018-09-17T21:14:11.456Z,99872.17
2018-09-17T21:16:40.026Z,99877.70
2018-09-17T21:19:08.526Z,99874.64
2018-09-17T21:21:42.265Z,99875.12
2018-09-17T21:24:09.841Z,99873.89
2018-09-17T21:26:39.088Z,99871.20
2018-09-17T21:29:07.009Z,99860.27
2018-09-17T21:31:34.728Z,99865.59
2018-09-17T21:34:02.352Z,99860.55
2018-09-17T21:36:30.338Z,99860.52
2018-09-17T21:38:58.945Z,99859.51
2018-09-17T21:41:26.547Z,99851.94
2018-09-17T21:43:54.491Z,99852.79
2018-09-17T21:46:22.923Z,99848.23
2018-09-17T21:48:50.589Z,99847.56
2018-09-17T21:51:19.264Z,99844.05
2018-09-17T21:53:50.474Z,99848.91
2018-09-17T21:56:18.083Z,99844.05
2018-09-17T21:58:46.912Z,99836.14
2018-09-17T22:01:18.537Z,99848.05
2018-09-17T22:03:46.101Z,99848.20
2018-09-17T22:06:14.575Z,99840.31
2018-09-17T22:08:42.239Z,99846.17
2018-09-17T22:11:09.846Z,99845.35
2018-09-17T22:13:38.464Z,99836.39
2018-09-17T22:16:06.810Z,99839.56
2018-09-17T22:18:35.281Z,99839.89
2018-09-17T22:21:03.386Z,99838.88
2018-09-17T22:23:30.970Z,99835.34
2018-09-17T22:25:58.620Z,99827.61
2018-09-17T22:28:26.743Z,99829.30
2018-09-17T22:30:54.458Z,99824.27
2018-09-17T22:33:22.165Z,99823.78
2018-09-17T22:35:50.179Z,99820.23
2018-09-17T22:38:17.864Z,99814.52
2018-09-17T22:40:46.554Z,99809.16
2018-09-17T22:43:14.619Z,99810.50
2018-09-17T22:45:42.240Z,99809.34
2018-09-17T22:48:09.868Z,99816.05
2018-09-17T22:50:38.143Z,99813.52
2018-09-17T22:53:05.716Z,99812.47
2018-09-17T22:55:33.606Z,99815.81
2018-09-17T22:58:01.204Z,99814.95
2018-09-17T23:00:28.850Z,99807.38
2018-09-17T23:02:58.668Z,99809.53
2018-09-17T23:05:26.320Z,99801.09
2018-09-17T23:07:53.922Z,99795.86
2018-09-17T23:10:21.966Z,99800.84
2018-09-17T23:12:49.567Z,99796.81
2018-09-17T23:15:17.239Z,99795.42
2018-09-17T23:17:44.847Z,99784.67
2018-09-17T23:20:12.919Z,99789.17
2018-09-17T23:22:40.487Z,99788.64
2018-09-17T23:25:08.099Z,99789.07
2018-09-17T23:27:35.688Z,99788.20
2018-09-17T23:30:03.326Z,99782.13
2018-09-17T23:32:30.891Z,99778.42
2018-09-17T23:34:58.491Z,99772.37
2018-09-17T23:37:26.070Z,99771.19
2018-09-17T23:39:53.990Z,99771.67
2018-09-17T23:42:21.587Z,99771.52
2018-09-17T23:44:49.331Z,99767.02
2018-09-17T23:47:17.003Z,99774.40
2018-09-17T23:49:44.676Z,99764.86
2018-09-17T23:52:12.294Z,99763.34
2018-09-17T23:54:40.236Z,99762.20
2018-09-17T23:57:07.848Z,99758.51
2018-09-17T23:59:35.539Z,99758.70
